createdAt,value
2022-08-05T00:01:54.578Z,99389.55
2022-08-05T00:04:22.882Z,99390.02
2022-08-05T00:06:51.734Z,99387.11
2022-08-05T00:09:20.485Z,99386.20
2022-08-05T00:11:55.626Z,99381.89
2022-08-05T00:14:29.062Z,99378.83
2022-08-05T00:16:58.090Z,99378.00
2022-08-05T00:19:33.698Z,99375.83
2022-08-05T00:22:11.386Z,99378.64
2022-08-05T00:24:42.199Z,99377.95
2022-08-05T00:27:16.623Z,99372.75
2022-08-05T00:29:45.710Z,99370.79
2022-08-05T00:32:15.483Z,99372.17
2022-08-05T00:35:04.581Z,99371.95
2022-08-05T00:37:51.207Z,99367.38
2022-08-05T00:40:26.960Z,99371.02
2022-08-05T00:43:02.362Z,99368.96
2022-08-05T00:45:42.856Z,99368.13
2022-08-05T00:48:14.685Z,99366.54
2022-08-05T00:50:46.053Z,99362.75
2022-08-05T00:54:00.362Z,99364.63
2022-08-05T00:56:07.702Z,99358.38
2022-08-05T00:58:37.691Z,99356.48
2022-08-05T01:01:08.570Z,99357.38
2022-08-05T01:03:39.158Z,99357.20
2022-08-05T01:06:11.379Z,99359.79
2022-08-05T01:08:47.290Z,99356.48
2022-08-05T01:11:24.245Z,99358.77
2022-08-05T01:14:37.698Z,99359.27
2022-08-05T01:17:46.116Z,99357.38
2022-08-05T01:20:30.777Z,99353.19
2022-08-05T01:23:34.699Z,99355.99
2022-08-05T01:26:34.401Z,99356.80
2022-08-05T01:29:09.028Z,99356.58
2022-08-05T01:31:45.668Z,99348.92
2022-08-05T01:34:26.769Z,99347.52
2022-08-05T01:37:24.957Z,99345.20
2022-08-05T01:39:59.022Z,99344.25
2022-08-05T01:42:29.288Z,99344.16
2022-08-05T01:45:02.052Z,99342.81
2022-08-05T01:47:39.186Z,99337.94
2022-08-05T01:50:30.674Z,99338.49
2022-08-05T01:53:04.895Z,99343.39
2022-08-05T01:55:36.243Z,99339.42
2022-08-05T01:58:09.365Z,99340.81
2022-08-05T02:00:45.901Z,99338.55
2022-08-05T02:03:31.869Z,99337.23
2022-08-05T02:06:23.988Z,99336.96
2022-08-05T02:08:58.108Z,99337.63
2022-08-05T02:11:47.918Z,99336.48
2022-08-05T02:14:41.333Z,99336.20
2022-08-05T02:18:31.263Z,99332.48
2022-08-05T02:20:28.321Z,99326.53
2022-08-05T02:23:01.410Z,99327.80
2022-08-05T02:25:48.882Z,99321.98
2022-08-05T02:28:36.442Z,99320.98
2022-08-05T02:31:22.149Z,99313.54
2022-08-05T02:34:05.426Z,99313.52
2022-08-05T02:36:36.772Z,99310.44
2022-08-05T02:39:10.047Z,99308.58
2022-08-05T02:41:58.112Z,99307.73
2022-08-05T02:44:30.431Z,99305.18
2022-08-05T02:47:00.865Z,99307.62
2022-08-05T02:49:37.689Z,99302.36
2022-08-05T02:52:30.013Z,99299.79
2022-08-05T02:55:05.562Z,99301.27
2022-08-05T02:58:10.220Z,99301.83
2022-08-05T03:00:25.581Z,99298.81
2022-08-05T03:02:57.730Z,99299.70
2022-08-05T03:06:54.363Z,99297.62
2022-08-05T03:08:16.601Z,99294.45
2022-08-05T03:11:53.436Z,99290.19
2022-08-05T03:13:52.120Z,99286.08
2022-08-05T03:16:27.726Z,99285.14
2022-08-05T03:18:56.469Z,99285.36
2022-08-05T03:21:24.646Z,99284.96
2022-08-05T03:23:58.101Z,99280.90
2022-08-05T03:26:31.638Z,99278.19
2022-08-05T03:29:01.111Z,99273.44
2022-08-05T03:31:56.912Z,99269.95
2022-08-05T03:34:19.406Z,99268.29
2022-08-05T03:36:52.700Z,99268.36
2022-08-05T03:39:27.036Z,99272.13
2022-08-05T03:41:56.666Z,99273.77
2022-08-05T03:44:28.926Z,99271.88
2022-08-05T03:46:57.424Z,99271.54
2022-08-05T03:49:31.156Z,99269.90
2022-08-05T03:52:50.623Z,99272.79
2022-08-05T03:56:00.987Z,99271.63
2022-08-05T03:58:18.239Z,99274.20
2022-08-05T04:00:51.498Z,99276.85
2022-08-05T04:03:28.436Z,99275.91
2022-08-05T04:05:59.114Z,99273.81
2022-08-05T04:08:36.326Z,99272.34
2022-08-05T04:11:08.593Z,99270.83
2022-08-05T04:13:50.247Z,99270.27
2022-08-05T04:16:24.116Z,99271.44
2022-08-05T04:18:54.912Z,99276.00
2022-08-05T04:22:08.641Z,99279.09
2022-08-05T04:24:19.714Z,99276.73
2022-08-05T04:26:51.024Z,99282.38
2022-08-05T04:29:19.794Z,99279.71
2022-08-05T04:31:48.328Z,99278.90
2022-08-05T04:34:31.492Z,99284.05
2022-08-05T04:37:03.105Z,99280.94
2022-08-05T04:39:32.308Z,99280.27
2022-08-05T04:42:04.174Z,99279.41
2022-08-05T04:44:32.491Z,99281.09
2022-08-05T04:47:09.302Z,99280.52
2022-08-05T04:50:01.782Z,99281.11
2022-08-05T04:52:28.581Z,99285.65
2022-08-05T04:54:57.883Z,99289.32
2022-08-05T04:57:28.729Z,99287.36
2022-08-05T04:59:58.597Z,99286.34
2022-08-05T05:02:37.630Z,99288.23
2022-08-05T05:05:26.139Z,99287.79
2022-08-05T05:08:14.399Z,99290.35
2022-08-05T05:10:56.733Z,99289.45
2022-08-05T05:13:25.101Z,99296.39
2022-08-05T05:15:56.716Z,99295.46
2022-08-05T05:18:33.201Z,99294.88
2022-08-05T05:21:03.943Z,99296.25
2022-08-05T05:23:39.465Z,99289.92
2022-08-05T05:26:28.611Z,99289.34
2022-08-05T05:29:01.252Z,99294.63
2022-08-05T05:34:01.861Z,99297.95
2022-08-05T05:36:31.974Z,99298.66
2022-08-05T05:39:00.495Z,99299.79
2022-08-05T05:41:40.857Z,99298.61
2022-08-05T05:44:37.409Z,99298.90
2022-08-05T05:47:04.286Z,99300.72
2022-08-05T05:49:33.331Z,99301.70
2022-08-05T05:52:05.949Z,99300.80
2022-08-05T05:54:50.427Z,99297.70
2022-08-05T05:57:20.479Z,99296.69
2022-08-05T05:59:49.156Z,99294.05
2022-08-05T06:02:32.314Z,99293.75
2022-08-05T06:05:14.659Z,99290.48
2022-08-05T06:08:01.135Z,99288.30
2022-08-05T06:10:36.519Z,99283.61
2022-08-05T06:13:05.918Z,99281.55
2022-08-05T06:16:28.596Z,99287.61
2022-08-05T06:18:31.484Z,99285.89
2022-08-05T06:21:00.993Z,99286.59
2022-08-05T06:23:32.029Z,99281.36
2022-08-05T06:26:21.634Z,99283.06
2022-08-05T06:28:53.266Z,99282.67
2022-08-05T06:31:22.306Z,99283.47
2022-08-05T06:34:06.826Z,99283.76
2022-08-05T06:36:53.565Z,99289.16
2022-08-05T06:39:27.052Z,99284.31
2022-08-05T06:42:04.004Z,99275.69
2022-08-05T06:44:32.895Z,99270.27
2022-08-05T06:47:02.234Z,99274.91
2022-08-05T06:50:01.695Z,99272.97
2022-08-05T06:52:37.007Z,99278.61
2022-08-05T06:55:07.625Z,99274.83
2022-08-05T06:58:03.858Z,99273.30
2022-08-05T07:00:25.509Z,99267.92
2022-08-05T07:02:54.330Z,99271.26
2022-08-05T07:05:36.929Z,99264.50
2022-08-05T07:08:10.742Z,99262.21
2022-08-05T07:10:53.438Z,99262.45
2022-08-05T07:13:57.596Z,99258.02
2022-08-05T07:17:55.939Z,99262.08
2022-08-05T07:20:23.108Z,99260.63
2022-08-05T07:22:28.102Z,99265.14
2022-08-05T07:25:23.057Z,99261.59
2022-08-05T07:27:58.374Z,99267.06
2022-08-05T07:30:33.751Z,99265.16
2022-08-05T07:33:09.428Z,99262.69
2022-08-05T07:36:05.299Z,99263.13
2022-08-05T07:38:34.512Z,99268.88
2022-08-05T07:42:06.863Z,99265.41
2022-08-05T07:43:59.363Z,99261.45
2022-08-05T07:46:30.556Z,99261.70
2022-08-05T07:49:05.368Z,99264.12
2022-08-05T07:51:40.826Z,99259.69
2022-08-05T07:54:18.742Z,99263.40
2022-08-05T07:57:14.734Z,99263.19
2022-08-05T07:59:39.891Z,99262.42
2022-08-05T08:02:15.641Z,99261.52
2022-08-05T08:04:48.313Z,99259.98
2022-08-05T08:07:22.094Z,99259.55
2022-08-05T08:09:54.873Z,99257.14
2022-08-05T08:12:35.396Z,99264.64
2022-08-05T08:15:15.178Z,99263.71
2022-08-05T08:17:49.867Z,99263.21
2022-08-05T08:20:59.981Z,99264.32
2022-08-05T08:24:02.164Z,99262.41
2022-08-05T08:26:04.818Z,99258.00
2022-08-05T08:28:36.631Z,99252.52
2022-08-05T08:31:14.989Z,99250.50
2022-08-05T08:33:46.912Z,99243.83
2022-08-05T08:36:38.852Z,99241.06
2022-08-05T08:39:15.052Z,99240.34
2022-08-05T08:41:52.259Z,99243.00
2022-08-05T08:45:22.764Z,99245.09
2022-08-05T08:48:07.750Z,99244.40
2022-08-05T08:50:31.618Z,99245.96
2022-08-05T08:53:11.925Z,99244.64
2022-08-05T08:56:05.015Z,99243.51
2022-08-05T08:58:43.437Z,99242.59
2022-08-05T09:01:18.306Z,99238.13
2022-08-05T09:03:55.312Z,99237.63
2022-08-05T09:06:29.539Z,99239.27
2022-08-05T09:09:02.426Z,99234.95
2022-08-05T09:11:50.724Z,99228.58
2022-08-05T09:14:56.769Z,99227.66
2022-08-05T09:17:40.155Z,99224.27
2022-08-05T09:20:05.205Z,99218.67
2022-08-05T09:23:05.304Z,99221.30
2022-08-05T09:26:00.020Z,99221.75
2022-08-05T09:28:32.365Z,99223.13
2022-08-05T09:32:08.522Z,99224.19
2022-08-05T09:34:10.349Z,99221.78
2022-08-05T09:36:54.882Z,99220.88
2022-08-05T09:39:45.136Z,99218.72
2022-08-05T09:42:23.583Z,99215.67
2022-08-05T09:45:03.279Z,99216.16
2022-08-05T09:47:47.963Z,99225.72
2022-08-05T09:50:38.736Z,99223.48
2022-08-05T09:53:12.049Z,99222.48
2022-08-05T09:56:04.650Z,99216.20
2022-08-05T09:58:41.995Z,99218.14
2022-08-05T10:01:15.222Z,99215.04
2022-08-05T10:04:10.671Z,99214.81
2022-08-05T10:06:41.352Z,99210.76
2022-08-05T10:09:27.713Z,99206.64
2022-08-05T10:12:30.289Z,99203.22
2022-08-05T10:15:28.725Z,99205.96
2022-08-05T10:18:13.269Z,99202.07
2022-08-05T10:20:47.787Z,99193.81
2022-08-05T10:23:55.060Z,99190.33
2022-08-05T10:26:15.134Z,99185.55
2022-08-05T10:28:45.059Z,99183.23
2022-08-05T10:32:48.003Z,99180.15
2022-08-05T10:34:07.879Z,99183.90
2022-08-05T10:36:41.828Z,99178.12
2022-08-05T10:39:59.493Z,99178.29
2022-08-05T10:42:33.600Z,99179.15
2022-08-05T10:45:20.913Z,99178.90
2022-08-05T10:48:31.376Z,99178.13
2022-08-05T10:50:59.703Z,99180.79
2022-08-05T10:53:51.500Z,99175.46
2022-08-05T10:56:26.535Z,99172.79
2022-08-05T10:58:54.822Z,99172.98
2022-08-05T11:01:54.279Z,99172.46
2022-08-05T11:04:26.126Z,99168.83
2022-08-05T11:07:01.438Z,99167.36
2022-08-05T11:09:47.265Z,99159.80
2022-08-05T11:12:34.633Z,99156.63
2022-08-05T11:15:20.667Z,99156.14
2022-08-05T11:18:07.293Z,99149.95
2022-08-05T11:20:44.613Z,99149.74
2022-08-05T11:23:33.444Z,99149.55
2022-08-05T11:26:32.668Z,99147.63
2022-08-05T11:29:12.077Z,99148.03
2022-08-05T11:31:54.300Z,99145.93
2022-08-05T11:34:39.624Z,99141.83
2022-08-05T11:38:30.691Z,99139.21
2022-08-05T11:40:03.117Z,99143.91
2022-08-05T11:42:37.798Z,99142.64
2022-08-05T11:45:23.158Z,99138.95
2022-08-05T11:47:58.012Z,99137.84
2022-08-05T11:50:28.085Z,99139.23
2022-08-05T11:52:58.325Z,99133.55
2022-08-05T11:55:32.031Z,99135.91
2022-08-05T11:58:09.587Z,99139.69
2022-08-05T12:00:41.506Z,99138.87
2022-08-05T12:03:28.726Z,99137.34
2022-08-05T12:06:05.947Z,99137.98
2022-08-05T12:08:52.833Z,99135.16
2022-08-05T12:11:28.260Z,99134.54
2022-08-05T12:14:10.277Z,99134.82
2022-08-05T12:16:45.172Z,99135.00
2022-08-05T12:20:26.185Z,99130.73
2022-08-05T12:22:09.589Z,99126.79
2022-08-05T12:24:43.718Z,99124.37
2022-08-05T12:27:26.714Z,99123.02
2022-08-05T12:30:05.206Z,99123.35
2022-08-05T12:32:45.931Z,99117.30
2022-08-05T12:35:21.596Z,99112.59
2022-08-05T12:37:53.192Z,99111.56
2022-08-05T12:40:28.722Z,99114.66
2022-08-05T12:42:57.982Z,99112.33
2022-08-05T12:45:42.384Z,99111.00
2022-08-05T12:48:27.479Z,99113.95
2022-08-05T12:52:10.740Z,99118.41
2022-08-05T12:54:16.666Z,99108.92
2022-08-05T12:56:57.877Z,99110.60
2022-08-05T12:59:46.823Z,99105.86
2022-08-05T13:02:30.215Z,99102.16
2022-08-05T13:04:59.055Z,99103.64
2022-08-05T13:10:20.220Z,99097.52
2022-08-05T13:12:57.248Z,99095.70
2022-08-05T13:15:42.236Z,99097.05
2022-08-05T13:18:20.554Z,99095.58
2022-08-05T13:20:49.885Z,99094.18
2022-08-05T13:23:22.699Z,99092.30
2022-08-05T13:25:59.288Z,99090.26
2022-08-05T13:28:29.314Z,99090.77
2022-08-05T13:31:03.361Z,99092.79
2022-08-05T13:34:23.558Z,99091.81
2022-08-05T13:36:31.112Z,99084.27
2022-08-05T13:38:59.441Z,99080.56
2022-08-05T13:41:35.828Z,99083.99
2022-08-05T13:44:06.214Z,99080.53
2022-08-05T13:47:01.855Z,99082.60
2022-08-05T13:49:22.907Z,99080.56
2022-08-05T13:51:51.694Z,99081.39
2022-08-05T13:54:24.951Z,99080.59
2022-08-05T13:56:53.802Z,99078.94
2022-08-05T13:59:25.326Z,99075.61
2022-08-05T14:02:00.163Z,99072.06
2022-08-05T14:04:52.705Z,99074.39
2022-08-05T14:07:59.794Z,99065.13
2022-08-05T14:10:18.763Z,99063.17
2022-08-05T14:12:57.257Z,99064.64
2022-08-05T14:16:08.394Z,99066.31
2022-08-05T14:18:18.061Z,99060.52
2022-08-05T14:20:48.443Z,99062.92
2022-08-05T14:23:24.591Z,99060.66
2022-08-05T14:25:58.090Z,99057.20
2022-08-05T14:28:29.223Z,99057.20
2022-08-05T14:30:59.752Z,99053.23
2022-08-05T14:33:32.557Z,99053.39
2022-08-05T14:36:21.396Z,99047.08
2022-08-05T14:38:51.148Z,99048.94
2022-08-05T14:41:19.754Z,99048.79
2022-08-05T14:43:59.244Z,99041.21
2022-08-05T14:46:35.107Z,99038.17
2022-08-05T14:49:08.194Z,99039.27
2022-08-05T14:51:42.595Z,99033.66
2022-08-05T14:54:28.311Z,99036.07
2022-08-05T14:56:59.421Z,99033.32
2022-08-05T14:59:35.365Z,99027.20
2022-08-05T15:02:14.699Z,99030.29
2022-08-05T15:04:44.854Z,99023.50
2022-08-05T15:08:06.641Z,99025.61
2022-08-05T15:10:09.927Z,99022.42
2022-08-05T15:12:59.851Z,99022.61
2022-08-05T15:15:54.107Z,99018.73
2022-08-05T15:18:17.301Z,99020.34
2022-08-05T15:20:46.272Z,99017.90
2022-08-05T15:23:15.770Z,99015.02
2022-08-05T15:25:52.060Z,99018.21
2022-08-05T15:28:27.643Z,99015.51
2022-08-05T15:30:57.496Z,99013.16
2022-08-05T15:34:04.614Z,99011.47
2022-08-05T15:36:17.378Z,99008.17
2022-08-05T15:40:41.137Z,99007.40
2022-08-05T15:41:55.544Z,99005.76
2022-08-05T15:44:26.399Z,99003.05
2022-08-05T15:46:55.947Z,99001.31
2022-08-05T15:49:40.746Z,99000.89
2022-08-05T15:52:28.981Z,99002.30
2022-08-05T15:54:58.377Z,99003.02
2022-08-05T15:57:33.138Z,98998.06
2022-08-05T16:00:05.165Z,98997.23
2022-08-05T16:02:33.864Z,98994.41
2022-08-05T16:05:02.951Z,98990.98
2022-08-05T16:07:33.584Z,98993.39
2022-08-05T16:10:01.859Z,98992.61
2022-08-05T16:12:31.162Z,98989.41
2022-08-05T16:15:02.304Z,98992.77
2022-08-05T16:17:30.581Z,98991.22
2022-08-05T16:20:05.160Z,98992.69
2022-08-05T16:22:39.857Z,98993.30
2022-08-05T16:25:10.421Z,98993.28
